Time;durP1;ratioP1;P1;durP2;ratioP2;P2;SDS_P1;SDS_P2;PMS_P1;PMS_P2;Temp;Humidity;BMP_temperature;BMP_pressure;BME280_temperature;BME280_humidity;BME280_pressure;Samples;Min_cycle;Max_cycle;Signal;HPM_P1;HPM_P2
2022/01/05 00:00:03;;;;;;;;;;;;;;;15.19;47.94;97613.47;4484505;32;35070;-86
2022/01/05 00:02:31;;;;;;;;;;;;;;;15.95;45.95;97610.19;4484392;32;33148;-87
2022/01/05 00:04:58;;;;;;;;;;;;;;;15.78;46.42;97607.28;4483717;32;34180;-86
2022/01/05 00:07:25;;;;;;;;;;;;;;;15.63;46.68;97615.59;4482860;32;35135;-84
2022/01/05 00:09:53;;;;;;;;;;;;;;;15.92;46.26;97612.06;4484279;32;35029;-88
2022/01/05 00:12:20;;;;;;;;;;;;;;;16.19;45.35;97612.88;4484233;32;33997;-87
2022/01/05 00:14:47;;;;;;;;;;;;;;;16.12;45.37;97600.91;4482685;32;32497;-84
2022/01/05 00:17:14;;;;;;;;;;;;;;;16.13;45.33;97602.63;4471583;32;34587;-85
2022/01/05 00:19:43;;;;;;;;;;;;;;;16.05;45.92;97602.88;4467198;32;34154;-83
2022/01/05 00:22:11;;;;;;;;;;;;;;;16.18;45.68;97595.50;4468292;32;34039;-88
2022/01/05 00:24:41;;;;;;;;;;;;;;;15.98;45.53;97598.75;4474321;32;34592;-87
2022/01/05 00:27:08;;;;;;;;;;;;;;;16.19;45.09;97587.56;4482588;32;34034;-85
2022/01/05 00:29:36;;;;;;;;;;;;;;;15.74;46.10;97588.25;4483971;32;34269;-87
2022/01/05 00:32:04;;;;;;;;;;;;;;;15.84;45.90;97587.94;4484051;32;33371;-84
2022/01/05 00:34:31;;;;;;;;;;;;;;;16.00;45.05;97576.91;4478697;32;35097;-83
2022/01/05 00:36:58;;;;;;;;;;;;;;;16.35;44.79;97576.56;4483903;32;34280;-83
2022/01/05 00:39:25;;;;;;;;;;;;;;;15.87;45.35;97580.81;4483636;32;34531;-86
2022/01/05 00:41:53;;;;;;;;;;;;;;;15.99;45.40;97582.19;4483607;32;34215;-86
2022/01/05 00:44:20;;;;;;;;;;;;;;;15.78;45.92;97576.78;4474597;31;34021;-83
2022/01/05 00:46:47;;;;;;;;;;;;;;;15.95;45.42;97581.44;4469559;32;34301;-86
2022/01/05 00:49:14;;;;;;;;;;;;;;;15.98;45.01;97577.84;4481319;32;34249;-86
2022/01/05 00:51:42;;;;;;;;;;;;;;;15.99;45.31;97577.81;4483518;32;33182;-86
2022/01/05 00:54:09;;;;;;;;;;;;;;;15.75;45.62;97587.31;4482853;32;34367;-85
2022/01/05 00:56:36;;;;;;;;;;;;;;;16.07;44.74;97582.78;4483770;32;35299;-87
2022/01/05 00:59:03;;;;;;;;;;;;;;;15.65;45.50;97582.44;4483708;32;35070;-84
2022/01/05 01:01:31;;;;;;;;;;;;;;;15.75;45.29;97576.03;4483959;32;33875;-89
2022/01/05 01:03:58;;;;;;;;;;;;;;;15.51;45.48;97588.97;4478556;32;35198;-86
2022/01/05 01:06:25;;;;;;;;;;;;;;;16.03;45.22;97597.72;4483486;32;34248;-87
2022/01/05 01:08:53;;;;;;;;;;;;;;;15.43;46.09;97598.81;4483534;32;33940;-87
2022/01/05 01:11:20;;;;;;;;;;;;;;;15.23;46.58;97601.19;4483121;32;32930;-87
2022/01/05 01:13:47;;;;;;;;;;;;;;;15.64;45.58;97593.78;4483651;32;34156;-85
2022/01/05 01:16:14;;;;;;;;;;;;;;;15.07;47.91;97588.59;4483696;32;34323;-85
2022/01/05 01:18:42;;;;;;;;;;;;;;;15.06;47.10;97588.62;4483491;32;34587;-87
2022/01/05 01:21:09;;;;;;;;;;;;;;;15.19;47.10;97586.50;4482937;32;33574;-87
2022/01/05 01:23:37;;;;;;;;;;;;;;;14.96;47.70;97584.59;4483554;32;34304;-88
2022/01/05 01:26:05;;;;;;;;;;;;;;;14.91;47.52;97582.12;4483768;32;34583;-88
2022/01/05 01:28:32;;;;;;;;;;;;;;;15.45;46.25;97578.69;4483596;32;33916;-85
2022/01/05 01:30:59;;;;;;;;;;;;;;;15.16;47.03;97563.13;4483429;32;32731;-86
2022/01/05 01:33:26;;;;;;;;;;;;;;;15.56;46.42;97557.47;4483581;32;35150;-86
2022/01/05 01:35:53;;;;;;;;;;;;;;;15.43;46.53;97553.56;4483791;32;35205;-86
2022/01/05 01:38:20;;;;;;;;;;;;;;;15.68;45.79;97562.34;4483861;32;35033;-86
2022/01/05 01:40:49;;;;;;;;;;;;;;;15.54;46.12;97561.91;4483238;32;33335;-85
2022/01/05 01:43:17;;;;;;;;;;;;;;;15.27;47.08;97569.72;4483320;31;33349;-85
2022/01/05 01:45:44;;;;;;;;;;;;;;;15.39;47.43;97573.69;4483734;32;33893;-85
2022/01/05 01:48:11;;;;;;;;;;;;;;;15.69;46.49;97573.62;4482978;32;35027;-85
2022/01/05 01:50:39;;;;;;;;;;;;;;;15.53;46.53;97557.56;4483081;32;33300;-85
2022/01/05 01:53:06;;;;;;;;;;;;;;;15.98;45.40;97554.34;4482208;32;34577;-87
2022/01/05 01:55:35;;;;;;;;;;;;;;;15.82;45.58;97557.47;4483500;32;34453;-84
2022/01/05 01:58:02;;;;;;;;;;;;;;;15.70;46.56;97552.66;4483680;32;34878;-89
2022/01/05 02:00:29;;;;;;;;;;;;;;;15.28;46.85;97550.53;4481793;32;33254;-88
2022/01/05 02:02:57;;;;;;;;;;;;;;;15.46;46.40;97559.53;4481569;32;34656;-88
2022/01/05 02:05:24;;;;;;;;;;;;;;;15.69;45.91;97561.41;4481669;32;33801;-87
2022/01/05 02:07:51;;;;;;;;;;;;;;;15.59;45.97;97562.59;4482894;32;33736;-84
2022/01/05 02:10:19;;;;;;;;;;;;;;;15.77;45.86;97566.38;4482919;32;34300;-83
2022/01/05 02:12:47;;;;;;;;;;;;;;;15.54;46.49;97561.91;4483476;32;34871;-85
2022/01/05 02:15:14;;;;;;;;;;;;;;;15.35;46.85;97563.41;4481820;32;35261;-87
2022/01/05 02:17:54;;;;;;;;;;;;;;;15.62;46.04;97570.31;4482606;32;35256;-86
2022/01/05 02:20:23;;;;;;;;;;;;;;;15.44;46.41;97563.09;4482191;32;33449;-87
2022/01/05 02:22:51;;;;;;;;;;;;;;;15.60;46.47;97556.44;4481947;32;35079;-88
2022/01/05 02:25:18;;;;;;;;;;;;;;;15.83;45.68;97553.09;4483057;32;35311;-86
2022/01/05 02:27:47;;;;;;;;;;;;;;;15.73;45.87;97552.56;4482920;32;34297;-86
2022/01/05 02:30:17;;;;;;;;;;;;;;;15.51;46.09;97552.38;4483047;32;33543;-85
2022/01/05 02:32:44;;;;;;;;;;;;;;;15.45;46.21;97552.59;4482171;32;33787;-87
2022/01/05 02:35:11;;;;;;;;;;;;;;;15.56;45.92;97542.62;4481491;32;35373;-83
2022/01/05 02:37:42;;;;;;;;;;;;;;;15.79;45.45;97536.66;4481808;32;33964;-84
2022/01/05 02:40:10;;;;;;;;;;;;;;;15.67;45.71;97533.63;4483167;32;33323;-85
2022/01/05 02:42:37;;;;;;;;;;;;;;;15.69;45.75;97519.62;4481679;32;34077;-84
2022/01/05 02:45:05;;;;;;;;;;;;;;;15.51;45.96;97525.44;4482077;32;34390;-87
2022/01/05 02:47:32;;;;;;;;;;;;;;;15.99;45.31;97524.69;4482431;32;33634;-86
2022/01/05 02:49:59;;;;;;;;;;;;;;;15.84;45.71;97522.63;4481638;32;33261;-89
2022/01/05 02:52:27;;;;;;;;;;;;;;;15.80;46.24;97525.34;4482815;32;34961;-85
2022/01/05 02:54:54;;;;;;;;;;;;;;;15.01;49.35;97531.37;4481604;32;34067;-86
2022/01/05 02:57:21;;;;;;;;;;;;;;;15.51;47.76;97531.50;4482484;32;34068;-88
2022/01/05 02:59:49;;;;;;;;;;;;;;;15.83;46.68;97526.97;4482494;32;33140;-84
2022/01/05 03:02:16;;;;;;;;;;;;;;;15.87;46.28;97533.78;4482567;32;35790;-87
2022/01/05 03:04:43;;;;;;;;;;;;;;;15.89;46.11;97537.22;4482565;32;33827;-87
2022/01/05 03:07:10;;;;;;;;;;;;;;;15.60;46.83;97529.47;4482241;32;34523;-87
2022/01/05 03:09:38;;;;;;;;;;;;;;;15.78;46.75;97527.12;4482631;32;33751;-86
2022/01/05 03:12:05;;;;;;;;;;;;;;;16.01;45.73;97531.56;4481409;32;34321;-88
2022/01/05 03:14:32;;;;;;;;;;;;;;;15.73;46.54;97530.81;4480595;32;35146;-85
2022/01/05 03:17:00;;;;;;;;;;;;;;;16.01;46.06;97530.72;4482460;32;33855;-84
2022/01/05 03:19:27;;;;;;;;;;;;;;;16.22;45.56;97529.94;4476306;32;32930;-87
2022/01/05 03:21:54;;;;;;;;;;;;;;;16.13;45.54;97526.81;4481141;32;33978;-87
2022/01/05 03:24:21;;;;;;;;;;;;;;;15.70;47.25;97530.91;4482199;32;35214;-84
2022/01/05 03:26:49;;;;;;;;;;;;;;;15.44;48.15;97535.22;4483141;32;33896;-87
2022/01/05 03:29:16;;;;;;;;;;;;;;;15.60;47.61;97534.69;4484063;32;34436;-85
2022/01/05 03:31:43;;;;;;;;;;;;;;;15.49;47.65;97533.31;4484292;32;35102;-88
2022/01/05 03:34:17;;;;;;;;;;;;;;;15.94;46.55;97524.84;4484350;32;34491;-88
2022/01/05 03:36:44;;;;;;;;;;;;;;;16.25;45.64;97523.72;4483392;32;34313;-86
2022/01/05 03:39:12;;;;;;;;;;;;;;;15.96;46.10;97523.03;4483038;32;34196;-84
2022/01/05 03:41:39;;;;;;;;;;;;;;;15.99;45.98;97519.47;4484493;32;35069;-86
2022/01/05 03:44:06;;;;;;;;;;;;;;;15.74;46.54;97524.69;4484044;32;34564;-85
2022/01/05 03:46:34;;;;;;;;;;;;;;;16.02;45.99;97528.06;4483645;32;35158;-86
2022/01/05 03:49:01;;;;;;;;;;;;;;;15.92;46.25;97521.44;4484542;32;34292;-87
2022/01/05 03:51:28;;;;;;;;;;;;;;;16.05;45.91;97521.84;4484152;32;33743;-87
2022/01/05 03:53:56;;;;;;;;;;;;;;;16.47;44.75;97514.19;4484659;32;33994;-84
2022/01/05 03:56:23;;;;;;;;;;;;;;;16.18;45.15;97509.22;4483744;32;34344;-87
2022/01/05 03:58:50;;;;;;;;;;;;;;;16.18;45.34;97507.44;4483863;32;33796;-86
2022/01/05 04:01:18;;;;;;;;;;;;;;;16.25;45.05;97497.59;4483261;32;34281;-87
2022/01/05 04:03:45;;;;;;;;;;;;;;;16.04;45.56;97505.31;4483973;32;34195;-85
2022/01/05 04:06:12;;;;;;;;;;;;;;;15.97;45.86;97500.34;4482292;32;34781;-88
2022/01/05 04:08:40;;;;;;;;;;;;;;;15.94;45.87;97492.63;4484102;32;33251;-88
2022/01/05 04:11:07;;;;;;;;;;;;;;;16.24;44.98;97495.88;4484150;32;34961;-87
2022/01/05 04:13:34;;;;;;;;;;;;;;;16.26;44.88;97496.69;4484140;32;34259;-83
2022/01/05 04:16:01;;;;;;;;;;;;;;;16.05;45.49;97493.94;4483597;32;34928;-85
2022/01/05 04:18:29;;;;;;;;;;;;;;;16.40;44.88;97494.44;4484172;32;33412;-88
2022/01/05 04:20:56;;;;;;;;;;;;;;;16.38;44.80;97492.78;4484132;32;34258;-85
2022/01/05 04:23:24;;;;;;;;;;;;;;;16.30;45.00;97485.22;4483860;32;34405;-84
2022/01/05 04:25:51;;;;;;;;;;;;;;;16.27;44.89;97482.72;4483872;32;33730;-87
2022/01/05 04:28:19;;;;;;;;;;;;;;;16.35;44.74;97488.50;4483606;32;33959;-86
2022/01/05 04:30:46;;;;;;;;;;;;;;;16.37;44.66;97484.09;4484311;32;33779;-83
2022/01/05 04:33:13;;;;;;;;;;;;;;;16.13;45.44;97490.19;4484192;32;33799;-84
2022/01/05 04:36:00;;;;;;;;;;;;;;;15.83;45.95;97485.16;4483622;32;33517;-87
2022/01/05 04:38:28;;;;;;;;;;;;;;;15.92;46.09;97490.06;4470744;32;33435;-87
2022/01/05 04:40:55;;;;;;;;;;;;;;;16.09;45.43;97492.06;4483886;32;34145;-88
2022/01/05 04:43:22;;;;;;;;;;;;;;;16.47;44.73;97492.41;4483799;32;35176;-88
2022/01/05 04:45:50;;;;;;;;;;;;;;;16.23;45.02;97488.97;4483612;32;35231;-87
2022/01/05 04:48:17;;;;;;;;;;;;;;;16.11;45.46;97484.19;4483817;32;33680;-84
2022/01/05 04:50:44;;;;;;;;;;;;;;;16.10;45.46;97480.72;4484177;32;34151;-88
2022/01/05 04:53:13;;;;;;;;;;;;;;;16.26;45.01;97491.47;4482413;32;35060;-84
2022/01/05 04:55:40;;;;;;;;;;;;;;;15.97;45.48;97482.91;4483670;32;34927;-87
2022/01/05 04:58:08;;;;;;;;;;;;;;;16.12;45.25;97483.28;4482190;32;33438;-83
2022/01/05 05:00:35;;;;;;;;;;;;;;;16.13;45.18;97477.97;4483441;32;34063;-86
2022/01/05 05:03:03;;;;;;;;;;;;;;;16.29;44.74;97475.69;4484077;32;34097;-87
2022/01/05 05:05:30;;;;;;;;;;;;;;;16.04;45.33;97473.94;4483647;32;33546;-85
2022/01/05 05:07:58;;;;;;;;;;;;;;;16.14;45.24;97469.25;4483428;32;33082;-85
2022/01/05 05:10:28;;;;;;;;;;;;;;;16.23;44.87;97474.12;4477391;32;34386;-84
2022/01/05 05:12:56;;;;;;;;;;;;;;;16.47;44.35;97477.56;4483801;32;36041;-84
2022/01/05 05:15:23;;;;;;;;;;;;;;;16.43;44.24;97486.44;4481134;32;34237;-83
2022/01/05 05:17:50;;;;;;;;;;;;;;;16.11;45.01;97478.97;4482165;32;34066;-88
2022/01/05 05:20:17;;;;;;;;;;;;;;;16.26;44.58;97483.63;4483562;32;33972;-85
2022/01/05 05:22:45;;;;;;;;;;;;;;;16.23;44.65;97481.97;4483285;32;35322;-85
2022/01/05 05:25:13;;;;;;;;;;;;;;;15.86;45.30;97479.81;4483033;32;34281;-84
2022/01/05 05:27:40;;;;;;;;;;;;;;;15.93;45.23;97486.53;4483998;32;34302;-87
2022/01/05 05:30:27;;;;;;;;;;;;;;;16.11;44.89;97481.56;4481351;32;33925;-83
2022/01/05 05:32:57;;;;;;;;;;;;;;;16.13;44.63;97475.38;4466916;32;33991;-87
2022/01/05 05:35:26;;;;;;;;;;;;;;;16.13;44.85;97482.34;4481373;32;34098;-84
2022/01/05 05:37:54;;;;;;;;;;;;;;;16.34;44.52;97485.97;4482147;32;33739;-87
2022/01/05 05:40:21;;;;;;;;;;;;;;;16.23;44.48;97489.81;4481777;32;33802;-84
2022/01/05 05:42:48;;;;;;;;;;;;;;;16.24;44.66;97495.88;4482427;32;33805;-84
2022/01/05 05:45:16;;;;;;;;;;;;;;;16.24;44.48;97494.13;4483534;32;34290;-85
2022/01/05 05:47:43;;;;;;;;;;;;;;;16.37;44.26;97501.53;4482840;32;33127;-87
2022/01/05 05:50:11;;;;;;;;;;;;;;;16.39;44.23;97503.16;4479965;32;33970;-86
2022/01/05 05:52:38;;;;;;;;;;;;;;;16.05;44.92;97499.16;4477013;32;34427;-86
2022/01/05 05:55:05;;;;;;;;;;;;;;;15.88;45.35;97519.00;4479845;32;34001;-82
2022/01/05 05:57:42;;;;;;;;;;;;;;;15.96;44.96;97504.75;4480082;32;33342;-85
2022/01/05 06:00:10;;;;;;;;;;;;;;;15.95;45.16;97505.66;4483091;32;33994;-86
2022/01/05 06:02:37;;;;;;;;;;;;;;;16.18;44.59;97503.97;4482932;32;34033;-84
2022/01/05 06:05:05;;;;;;;;;;;;;;;15.84;45.16;97507.78;4483296;32;34287;-87
2022/01/05 06:07:32;;;;;;;;;;;;;;;15.52;45.67;97501.84;4482069;32;33500;-86
2022/01/05 06:09:59;;;;;;;;;;;;;;;15.66;45.50;97505.81;4481668;32;34294;-85
2022/01/05 06:12:27;;;;;;;;;;;;;;;15.72;45.53;97510.81;4482989;32;35043;-87
2022/01/05 06:14:54;;;;;;;;;;;;;;;15.70;45.78;97515.25;4482063;32;34108;-87
2022/01/05 06:17:21;;;;;;;;;;;;;;;16.03;44.64;97510.59;4483373;32;34002;-88
2022/01/05 06:19:48;;;;;;;;;;;;;;;15.79;45.63;97514.91;4482923;32;34859;-85
2022/01/05 06:22:17;;;;;;;;;;;;;;;15.80;45.69;97511.41;4481757;32;33884;-87
2022/01/05 06:24:48;;;;;;;;;;;;;;;15.90;45.20;97507.56;4482884;32;35029;-87
2022/01/05 06:27:16;;;;;;;;;;;;;;;15.95;45.05;97521.34;4483206;32;33505;-84
2022/01/05 06:29:43;;;;;;;;;;;;;;;16.04;45.32;97515.78;4482834;32;33872;-84
2022/01/05 06:32:10;;;;;;;;;;;;;;;15.72;45.50;97514.28;4482907;32;34140;-87
2022/01/05 06:34:37;;;;;;;;;;;;;;;15.93;45.26;97519.66;4483018;32;35344;-84
2022/01/05 06:37:05;;;;;;;;;;;;;;;15.95;45.08;97516.09;4483358;32;33286;-86
2022/01/05 06:39:33;;;;;;;;;;;;;;;16.13;44.70;97522.41;4483008;32;34025;-83
2022/01/05 06:42:00;;;;;;;;;;;;;;;16.18;44.74;97524.91;4481389;32;34196;-83
2022/01/05 06:44:27;;;;;;;;;;;;;;;15.82;45.33;97530.50;4467601;32;34221;-84
2022/01/05 06:46:59;;;;;;;;;;;;;;;15.67;46.19;97523.19;4467193;32;33433;-84
2022/01/05 06:49:27;;;;;;;;;;;;;;;15.83;45.72;97516.50;4469444;32;34364;-82
2022/01/05 06:51:54;;;;;;;;;;;;;;;16.13;44.95;97518.97;4482738;32;35267;-87
2022/01/05 06:54:21;;;;;;;;;;;;;;;16.17;44.77;97524.00;4482705;32;35034;-88
2022/01/05 06:56:48;;;;;;;;;;;;;;;15.74;46.14;97522.06;4482871;32;33549;-87
2022/01/05 06:59:16;;;;;;;;;;;;;;;15.72;45.96;97531.69;4482570;32;33875;-86
2022/01/05 07:01:43;;;;;;;;;;;;;;;15.81;45.78;97529.63;4484608;31;34006;-85
2022/01/05 07:04:10;;;;;;;;;;;;;;;15.63;46.33;97529.38;4488290;32;34257;-85
2022/01/05 07:06:40;;;;;;;;;;;;;;;15.98;45.54;97528.19;4487894;32;33307;-86
2022/01/05 07:09:07;;;;;;;;;;;;;;;16.11;45.25;97528.62;4487692;32;34370;-86
2022/01/05 07:11:35;;;;;;;;;;;;;;;16.26;44.99;97522.84;4487982;32;32942;-86
2022/01/05 07:14:05;;;;;;;;;;;;;;;16.23;45.19;97520.34;4487839;32;34857;-87
2022/01/05 07:16:32;;;;;;;;;;;;;;;15.98;45.82;97529.03;4487059;32;33684;-88
2022/01/05 07:19:00;;;;;;;;;;;;;;;16.04;45.74;97534.06;4488003;32;35186;-86
2022/01/05 07:21:28;;;;;;;;;;;;;;;16.18;45.75;97535.34;4475625;32;34097;-86
2022/01/05 07:23:55;;;;;;;;;;;;;;;15.86;46.53;97539.94;4487539;32;34890;-85
2022/01/05 07:26:24;;;;;;;;;;;;;;;16.21;46.02;97535.22;4487786;32;32908;-86
2022/01/05 07:28:51;;;;;;;;;;;;;;;15.96;46.53;97549.16;4487773;32;33526;-87
2022/01/05 07:31:19;;;;;;;;;;;;;;;16.20;46.21;97546.59;4487730;32;33783;-86
2022/01/05 07:33:46;;;;;;;;;;;;;;;16.13;46.47;97543.34;4483235;32;34027;-85
2022/01/05 07:36:13;;;;;;;;;;;;;;;15.82;47.35;97546.16;4471761;32;33310;-86
2022/01/05 07:38:42;;;;;;;;;;;;;;;15.85;47.30;97542.59;4471623;32;34088;-87
2022/01/05 07:41:10;;;;;;;;;;;;;;;16.13;46.93;97542.47;4471779;32;35313;-86
2022/01/05 07:43:37;;;;;;;;;;;;;;;16.40;46.46;97528.44;4471639;32;34908;-86
2022/01/05 07:46:04;;;;;;;;;;;;;;;16.14;47.30;97544.19;4472103;32;34068;-87
2022/01/05 07:48:31;;;;;;;;;;;;;;;16.57;46.18;97534.78;4486474;32;34013;-86
2022/01/05 07:50:59;;;;;;;;;;;;;;;16.16;47.27;97538.00;4487376;32;35027;-85
2022/01/05 07:53:26;;;;;;;;;;;;;;;16.69;46.10;97535.19;4487136;32;34276;-87
2022/01/05 07:55:53;;;;;;;;;;;;;;;16.85;45.89;97538.09;4487628;32;33426;-87
2022/01/05 07:58:23;;;;;;;;;;;;;;;16.69;46.49;97537.78;4486909;32;34045;-87
2022/01/05 08:00:50;;;;;;;;;;;;;;;16.61;46.67;97534.62;4486753;32;34839;-87
2022/01/05 08:03:18;;;;;;;;;;;;;;;16.55;46.88;97529.59;4486966;32;34566;-85
2022/01/05 08:06:05;;;;;;;;;;;;;;;16.56;46.70;97546.19;4485758;32;33622;-85
2022/01/05 08:08:32;;;;;;;;;;;;;;;16.75;46.45;97540.22;4486847;32;35529;-85
2022/01/05 08:11:00;;;;;;;;;;;;;;;16.56;46.95;97546.19;4485775;32;32960;-87
2022/01/05 08:13:27;;;;;;;;;;;;;;;16.14;48.08;97557.25;4484591;32;34202;-87
2022/01/05 08:15:54;;;;;;;;;;;;;;;16.57;47.18;97560.97;4484182;32;33917;-87
2022/01/05 08:18:22;;;;;;;;;;;;;;;16.46;47.89;97564.81;4482995;32;34378;-85
2022/01/05 08:20:49;;;;;;;;;;;;;;;16.36;47.90;97566.03;4483955;32;33953;-85
2022/01/05 08:23:17;;;;;;;;;;;;;;;16.14;48.51;97565.97;4484628;32;33599;-87
2022/01/05 08:25:44;;;;;;;;;;;;;;;15.94;49.03;97571.88;4484374;32;33372;-86
2022/01/05 08:28:11;;;;;;;;;;;;;;;16.08;48.65;97565.34;4484088;32;33727;-88
2022/01/05 08:30:39;;;;;;;;;;;;;;;16.34;48.32;97562.66;4482991;32;34082;-85
2022/01/05 08:33:06;;;;;;;;;;;;;;;16.57;47.66;97563.56;4484164;32;34782;-86
2022/01/05 08:35:34;;;;;;;;;;;;;;;16.43;48.10;97577.16;4483841;32;33194;-84
2022/01/05 08:38:01;;;;;;;;;;;;;;;16.59;47.72;97572.19;4482838;32;34057;-87
2022/01/05 08:40:28;;;;;;;;;;;;;;;15.72;49.70;97578.72;4484185;32;35008;-86
2022/01/05 08:42:56;;;;;;;;;;;;;;;15.96;49.30;97572.69;4483739;31;33682;-86
2022/01/05 08:45:24;;;;;;;;;;;;;;;15.86;49.50;97578.28;4483911;32;33735;-85
2022/01/05 08:47:51;;;;;;;;;;;;;;;16.37;48.52;97565.16;4482952;32;35063;-87
2022/01/05 08:50:20;;;;;;;;;;;;;;;15.25;51.29;97578.50;4482264;32;34345;-87
2022/01/05 08:52:47;;;;;;;;;;;;;;;15.99;49.59;97576.97;4483801;32;33818;-85
2022/01/05 08:55:15;;;;;;;;;;;;;;;16.33;48.57;97579.25;4484074;32;33334;-87
2022/01/05 09:00:28;;;;;;;;;;;;;;;16.38;48.73;97589.53;4483616;32;35334;-87
2022/01/05 09:02:56;;;;;;;;;;;;;;;16.15;49.28;97591.22;4483736;32;35059;-88
2022/01/05 09:05:23;;;;;;;;;;;;;;;16.14;49.11;97588.62;4483881;32;34108;-88
2022/01/05 09:07:51;;;;;;;;;;;;;;;16.29;49.35;97598.59;4483654;32;34344;-85
2022/01/05 09:10:18;;;;;;;;;;;;;;;16.48;48.55;97599.63;4483621;32;34389;-85
2022/01/05 09:12:45;;;;;;;;;;;;;;;16.53;48.57;97599.47;4483803;32;34303;-85
2022/01/05 09:15:12;;;;;;;;;;;;;;;16.90;48.62;97596.38;4483728;32;33469;-86
2022/01/05 09:17:39;;;;;;;;;;;;;;;17.16;47.66;97592.75;4483339;32;34903;-87
2022/01/05 09:20:07;;;;;;;;;;;;;;;17.52;46.47;97600.06;4483566;32;33246;-85
2022/01/05 09:22:38;;;;;;;;;;;;;;;17.58;45.96;97609.44;4482717;32;34956;-85
2022/01/05 09:25:06;;;;;;;;;;;;;;;17.83;45.64;97611.94;4483554;32;34287;-86
2022/01/05 09:27:33;;;;;;;;;;;;;;;16.84;47.96;97596.59;4483665;32;34352;-88
2022/01/05 09:30:01;;;;;;;;;;;;;;;17.07;47.47;97600.94;4483982;32;35437;-87
2022/01/05 09:32:28;;;;;;;;;;;;;;;17.05;47.56;97622.84;4483258;32;34172;-86
2022/01/05 09:34:55;;;;;;;;;;;;;;;16.83;48.10;97634.16;4483694;32;33923;-87
2022/01/05 09:37:34;;;;;;;;;;;;;;;15.97;50.08;97637.13;4483628;32;34021;-88
2022/01/05 09:42:47;;;;;;;;;;;;;;;15.71;49.93;97626.66;4483222;32;34047;-84
2022/01/05 09:45:14;;;;;;;;;;;;;;;16.46;47.85;97627.59;4482450;32;34213;-85
2022/01/05 09:47:47;;;;;;;;;;;;;;;15.44;50.14;97629.22;4483338;32;34046;-85
2022/01/05 09:50:15;;;;;;;;;;;;;;;15.37;50.12;97638.16;4483527;32;33952;-87
2022/01/05 09:52:43;;;;;;;;;;;;;;;15.98;48.55;97628.38;4483454;32;34804;-86
2022/01/05 09:55:11;;;;;;;;;;;;;;;16.23;48.06;97617.94;4482183;32;33841;-85
2022/01/05 09:57:40;;;;;;;;;;;;;;;14.96;51.06;97621.13;4483389;32;34890;-85
2022/01/05 10:00:08;;;;;;;;;;;;;;;15.96;48.51;97611.03;4483363;32;35191;-88
2022/01/05 10:02:38;;;;;;;;;;;;;;;15.97;48.67;97616.22;4483360;32;34114;-85
2022/01/05 10:05:09;;;;;;;;;;;;;;;16.32;47.85;97608.91;4482285;32;34127;-84
2022/01/05 10:07:37;;;;;;;;;;;;;;;15.94;48.56;97611.09;4483461;32;35051;-85
2022/01/05 10:10:04;;;;;;;;;;;;;;;16.18;48.35;97621.63;4483429;32;33536;-85
2022/01/05 10:12:32;;;;;;;;;;;;;;;15.81;49.26;97625.47;4482047;32;33930;-84
2022/01/05 10:14:59;;;;;;;;;;;;;;;14.68;51.90;97628.91;4483346;32;33274;-86
2022/01/05 10:17:28;;;;;;;;;;;;;;;15.69;49.47;97626.72;4483461;32;34418;-88
2022/01/05 10:19:57;;;;;;;;;;;;;;;15.65;49.43;97626.84;4483276;32;34863;-88
2022/01/05 10:22:27;;;;;;;;;;;;;;;13.73;54.89;97636.59;4483310;32;34813;-85
2022/01/05 10:24:56;;;;;;;;;;;;;;;13.98;54.11;97635.09;4483050;32;34167;-88
2022/01/05 10:27:24;;;;;;;;;;;;;;;15.38;50.47;97624.22;4481907;32;33521;-87
2022/01/05 10:29:51;;;;;;;;;;;;;;;15.22;50.94;97617.75;4483028;32;34264;-88
2022/01/05 10:32:18;;;;;;;;;;;;;;;14.34;53.52;97629.81;4482846;32;35315;-88
2022/01/05 10:35:06;;;;;;;;;;;;;;;14.84;52.31;97627.56;4483110;32;34364;-85
2022/01/05 10:37:34;;;;;;;;;;;;;;;15.27;51.21;97631.53;4471297;32;34206;-85
2022/01/05 10:40:04;;;;;;;;;;;;;;;15.13;51.49;97625.84;4483033;32;34416;-84
2022/01/05 10:42:32;;;;;;;;;;;;;;;14.53;52.78;97628.44;4482940;32;34497;-88
2022/01/05 10:45:01;;;;;;;;;;;;;;;14.84;52.28;97638.00;4482571;32;33308;-85
2022/01/05 10:47:31;;;;;;;;;;;;;;;14.42;53.39;97661.72;4481683;32;35414;-85
2022/01/05 10:49:58;;;;;;;;;;;;;;;14.10;54.43;97653.00;4482867;32;34501;-84
2022/01/05 10:52:28;;;;;;;;;;;;;;;14.18;53.76;97657.19;4482834;32;35001;-87
2022/01/05 10:55:08;;;;;;;;;;;;;;;13.57;55.33;97663.00;4482895;32;34369;-88
2022/01/05 10:57:35;;;;;;;;;;;;;;;13.38;56.21;97653.91;4482727;32;34909;-85
2022/01/05 11:00:04;;;;;;;;;;;;;;;13.77;55.21;97662.50;4482567;32;35287;-85
2022/01/05 11:02:32;;;;;;;;;;;;;;;13.76;55.12;97666.03;4482921;32;33816;-85
2022/01/05 11:05:05;;;;;;;;;;;;;;;14.76;52.38;97655.63;4482865;32;33850;-87
2022/01/05 11:07:36;;;;;;;;;;;;;;;14.52;52.89;97671.06;4482770;32;34644;-88
2022/01/05 11:10:05;;;;;;;;;;;;;;;14.74;52.73;97665.25;4482648;32;34606;-85
2022/01/05 11:12:40;;;;;;;;;;;;;;;14.10;54.93;97673.00;4481410;32;34982;-85
2022/01/05 11:15:16;;;;;;;;;;;;;;;13.62;55.83;97684.56;4481264;32;33912;-85
2022/01/05 11:18:03;;;;;;;;;;;;;;;13.72;55.35;97695.62;4482378;32;34303;-88
2022/01/05 11:20:30;;;;;;;;;;;;;;;13.34;56.12;97696.50;4482737;32;34010;-87
2022/01/05 11:22:57;;;;;;;;;;;;;;;12.68;57.00;97684.81;4482258;32;33903;-85
2022/01/05 11:25:24;;;;;;;;;;;;;;;13.58;55.38;97690.75;4482493;32;32982;-85
2022/01/05 11:27:51;;;;;;;;;;;;;;;12.86;57.38;97688.78;4467952;32;32233;-88
2022/01/05 11:30:19;;;;;;;;;;;;;;;11.61;60.58;97700.47;4482244;32;35270;-88
2022/01/05 11:32:46;;;;;;;;;;;;;;;12.58;57.82;97691.94;4481112;32;34382;-87
2022/01/05 11:35:13;;;;;;;;;;;;;;;12.39;58.81;97703.56;4481326;32;33923;-86
2022/01/05 11:37:40;;;;;;;;;;;;;;;12.05;59.70;97701.56;4482139;32;34267;-86
2022/01/05 11:40:08;;;;;;;;;;;;;;;12.20;58.23;97722.94;4482212;32;34482;-86
2022/01/05 11:42:36;;;;;;;;;;;;;;;12.56;57.06;97734.44;4482065;31;34312;-87
2022/01/05 11:45:04;;;;;;;;;;;;;;;12.74;56.60;97743.66;4482053;32;34239;-87
2022/01/05 11:47:32;;;;;;;;;;;;;;;12.74;56.65;97735.84;4482135;32;34692;-86
2022/01/05 11:50:11;;;;;;;;;;;;;;;11.52;60.73;97725.72;4483925;32;34885;-85
2022/01/05 11:52:54;;;;;;;;;;;;;;;12.04;58.87;97723.19;4484343;32;34281;-88
2022/01/05 11:55:22;;;;;;;;;;;;;;;12.19;58.64;97698.69;4484245;32;34051;-88
2022/01/05 11:58:08;;;;;;;;;;;;;;;12.23;58.34;97699.50;4483229;32;33745;-86
2022/01/05 12:00:35;;;;;;;;;;;;;;;11.86;59.38;97719.16;4484236;32;34495;-85
2022/01/05 12:03:03;;;;;;;;;;;;;;;10.95;62.41;97736.81;4482978;32;34243;-85
2022/01/05 12:05:49;;;;;;;;;;;;;;;11.39;60.82;97743.16;4484315;32;33131;-85
2022/01/05 12:08:35;;;;;;;;;;;;;;;12.00;58.55;97736.25;4484281;32;34339;-89
2022/01/05 12:11:02;;;;;;;;;;;;;;;11.57;60.20;97742.91;4484373;32;34243;-87
2022/01/05 12:13:36;;;;;;;;;;;;;;;11.23;61.35;97746.84;4482773;32;34824;-88
2022/01/05 12:16:04;;;;;;;;;;;;;;;11.40;60.25;97743.16;4483138;32;33997;-85
2022/01/05 12:18:35;;;;;;;;;;;;;;;11.76;59.59;97742.66;4484247;32;33824;-84
2022/01/05 12:21:03;;;;;;;;;;;;;;;11.90;59.75;97733.81;4484443;32;33881;-87
2022/01/05 12:23:30;;;;;;;;;;;;;;;12.03;58.82;97749.19;4484481;32;34307;-87
2022/01/05 12:26:02;;;;;;;;;;;;;;;12.51;57.35;97765.72;4483874;32;33544;-85
2022/01/05 12:28:29;;;;;;;;;;;;;;;12.10;57.66;97743.88;4484149;32;33692;-86
2022/01/05 12:30:57;;;;;;;;;;;;;;;12.59;56.24;97740.44;4484086;32;34540;-86
2022/01/05 12:33:25;;;;;;;;;;;;;;;11.66;60.05;97735.00;4483898;32;34119;-87
2022/01/05 12:35:53;;;;;;;;;;;;;;;11.78;59.64;97740.88;4483945;32;34347;-85
2022/01/05 12:38:37;;;;;;;;;;;;;;;11.20;60.94;97753.78;4482581;32;34873;-85
2022/01/05 12:41:23;;;;;;;;;;;;;;;11.58;60.09;97765.38;4482603;32;35273;-85
2022/01/05 12:43:51;;;;;;;;;;;;;;;11.98;58.76;97756.22;4483841;31;35083;-87
2022/01/05 12:46:32;;;;;;;;;;;;;;;11.51;60.92;97766.34;4483924;32;33197;-87
2022/01/05 12:49:00;;;;;;;;;;;;;;;12.36;58.08;97759.03;4482740;32;33814;-87
2022/01/05 12:51:34;;;;;;;;;;;;;;;11.63;60.25;97771.41;4483791;32;33903;-85
2022/01/05 12:54:23;;;;;;;;;;;;;;;12.23;58.65;97774.84;4483848;32;34860;-85
2022/01/05 12:57:00;;;;;;;;;;;;;;;12.14;58.41;97779.31;4483893;32;34160;-88
2022/01/05 12:59:34;;;;;;;;;;;;;;;12.22;58.84;97789.59;4481124;32;81057;-85